sensor_id;sensor_type;location;lat;lon;timestamp;temperature;humidity
22966;DHT22;11649;48.090;9.754;2024-02-14T00:00:54;2.30;99.90
22966;DHT22;11649;48.090;9.754;2024-02-14T00:03:22;2.40;99.90
22966;DHT22;11649;48.090;9.754;2024-02-14T00:05:50;2.40;99.90
22966;DHT22;11649;48.090;9.754;2024-02-14T00:08:18;2.40;99.90
22966;DHT22;11649;48.090;9.754;2024-02-14T00:10:45;2.40;99.90
22966;DHT22;11649;48.090;9.754;2024-02-14T00:13:24;2.40;99.90
22966;DHT22;11649;48.090;9.754;2024-02-14T00:15:51;2.40;99.90
22966;DHT22;11649;48.090;9.754;2024-02-14T00:18:18;2.30;99.90
22966;DHT22;11649;48.090;9.754;2024-02-14T00:20:46;2.40;99.90
22966;DHT22;11649;48.090;9.754;2024-02-14T00:23:13;2.40;99.90
22966;DHT22;11649;48.090;9.754;2024-02-14T00:25:39;2.50;99.90
22966;DHT22;11649;48.090;9.754;2024-02-14T00:28:06;2.50;99.90
22966;DHT22;11649;48.090;9.754;2024-02-14T00:30:33;2.50;99.90
22966;DHT22;11649;48.090;9.754;2024-02-14T00:33:01;2.50;99.90
22966;DHT22;11649;48.090;9.754;2024-02-14T00:35:31;2.60;99.90
22966;DHT22;11649;48.090;9.754;2024-02-14T00:37:58;2.80;99.90
22966;DHT22;11649;48.090;9.754;2024-02-14T00:40:24;2.80;99.90
22966;DHT22;11649;48.090;9.754;2024-02-14T00:42:51;2.80;99.90
22966;DHT22;11649;48.090;9.754;2024-02-14T00:45:18;2.90;99.90
22966;DHT22;11649;48.090;9.754;2024-02-14T00:47:45;2.80;99.90
22966;DHT22;11649;48.090;9.754;2024-02-14T00:50:12;2.80;99.90
22966;DHT22;11649;48.090;9.754;2024-02-14T00:52:40;2.70;99.90
22966;DHT22;11649;48.090;9.754;2024-02-14T00:55:07;2.60;99.90
22966;DHT22;11649;48.090;9.754;2024-02-14T00:57:34;2.60;99.90
22966;DHT22;11649;48.090;9.754;2024-02-14T01:00:01;2.70;99.90
22966;DHT22;11649;48.090;9.754;2024-02-14T01:02:28;2.50;99.90
22966;DHT22;11649;48.090;9.754;2024-02-14T01:04:54;2.60;99.90
22966;DHT22;11649;48.090;9.754;2024-02-14T01:07:21;2.60;99.90
22966;DHT22;11649;48.090;9.754;2024-02-14T01:09:48;2.60;99.90
22966;DHT22;11649;48.090;9.754;2024-02-14T01:12:15;2.60;99.90
22966;DHT22;11649;48.090;9.754;2024-02-14T01:14:42;2.50;99.90
22966;DHT22;11649;48.090;9.754;2024-02-14T01:17:09;2.40;99.90
22966;DHT22;11649;48.090;9.754;2024-02-14T01:19:35;2.20;99.90
22966;DHT22;11649;48.090;9.754;2024-02-14T01:22:02;2.10;99.90
22966;DHT22;11649;48.090;9.754;2024-02-14T01:24:29;2.20;99.90
22966;DHT22;11649;48.090;9.754;2024-02-14T01:26:57;2.20;99.90
22966;DHT22;11649;48.090;9.754;2024-02-14T01:29:24;2.40;99.90
22966;DHT22;11649;48.090;9.754;2024-02-14T01:31:50;2.40;99.90
22966;DHT22;11649;48.090;9.754;2024-02-14T01:34:17;2.40;99.90
22966;DHT22;11649;48.090;9.754;2024-02-14T01:36:46;2.50;99.90
22966;DHT22;11649;48.090;9.754;2024-02-14T01:39:12;2.30;99.90
22966;DHT22;11649;48.090;9.754;2024-02-14T01:41:44;2.40;99.90
22966;DHT22;11649;48.090;9.754;2024-02-14T01:44:12;2.30;99.90
22966;DHT22;11649;48.090;9.754;2024-02-14T01:46:39;2.50;99.90
22966;DHT22;11649;48.090;9.754;2024-02-14T01:49:05;2.70;99.90
22966;DHT22;11649;48.090;9.754;2024-02-14T01:51:33;2.90;99.90
22966;DHT22;11649;48.090;9.754;2024-02-14T01:54:03;2.60;99.90
22966;DHT22;11649;48.090;9.754;2024-02-14T01:56:30;3.30;99.90
22966;DHT22;11649;48.090;9.754;2024-02-14T01:58:58;3.00;99.90
22966;DHT22;11649;48.090;9.754;2024-02-14T02:01:26;3.00;99.90
22966;DHT22;11649;48.090;9.754;2024-02-14T02:03:54;3.20;99.90
22966;DHT22;11649;48.090;9.754;2024-02-14T02:06:20;3.50;99.90
22966;DHT22;11649;48.090;9.754;2024-02-14T02:08:47;3.60;99.90
22966;DHT22;11649;48.090;9.754;2024-02-14T02:11:14;3.90;99.90
22966;DHT22;11649;48.090;9.754;2024-02-14T02:13:41;4.00;99.90
22966;DHT22;11649;48.090;9.754;2024-02-14T02:16:08;4.00;99.90
22966;DHT22;11649;48.090;9.754;2024-02-14T02:18:35;4.00;99.90
22966;DHT22;11649;48.090;9.754;2024-02-14T02:21:02;4.20;99.90
22966;DHT22;11649;48.090;9.754;2024-02-14T02:23:34;4.30;99.90
22966;DHT22;11649;48.090;9.754;2024-02-14T02:26:02;4.30;99.90
22966;DHT22;11649;48.090;9.754;2024-02-14T02:28:28;4.30;99.90
22966;DHT22;11649;48.090;9.754;2024-02-14T02:30:55;4.40;99.90
22966;DHT22;11649;48.090;9.754;2024-02-14T02:33:22;4.40;99.90
22966;DHT22;11649;48.090;9.754;2024-02-14T02:35:50;4.50;99.90
22966;DHT22;11649;48.090;9.754;2024-02-14T02:38:17;4.50;99.90
22966;DHT22;11649;48.090;9.754;2024-02-14T02:40:44;4.50;99.90
22966;DHT22;11649;48.090;9.754;2024-02-14T02:43:11;4.50;99.90
22966;DHT22;11649;48.090;9.754;2024-02-14T02:45:38;4.50;99.90
22966;DHT22;11649;48.090;9.754;2024-02-14T02:48:05;4.50;99.90
22966;DHT22;11649;48.090;9.754;2024-02-14T02:50:33;4.40;99.90
22966;DHT22;11649;48.090;9.754;2024-02-14T02:53:00;4.30;99.90
22966;DHT22;11649;48.090;9.754;2024-02-14T02:55:27;4.40;99.90
22966;DHT22;11649;48.090;9.754;2024-02-14T02:57:54;4.30;99.90
22966;DHT22;11649;48.090;9.754;2024-02-14T03:00:21;4.30;99.90
22966;DHT22;11649;48.090;9.754;2024-02-14T03:02:48;4.40;99.90
22966;DHT22;11649;48.090;9.754;2024-02-14T03:05:15;4.50;99.90
22966;DHT22;11649;48.090;9.754;2024-02-14T03:07:46;4.50;99.90
22966;DHT22;11649;48.090;9.754;2024-02-14T03:10:15;4.60;99.90
22966;DHT22;11649;48.090;9.754;2024-02-14T03:12:48;4.60;99.90
22966;DHT22;11649;48.090;9.754;2024-02-14T03:15:16;4.50;99.90
22966;DHT22;11649;48.090;9.754;2024-02-14T03:17:43;4.50;99.90
22966;DHT22;11649;48.090;9.754;2024-02-14T03:20:11;4.60;99.90
22966;DHT22;11649;48.090;9.754;2024-02-14T03:22:44;4.60;99.90
22966;DHT22;11649;48.090;9.754;2024-02-14T03:25:13;4.60;99.90
22966;DHT22;11649;48.090;9.754;2024-02-14T03:27:40;4.50;99.90
22966;DHT22;11649;48.090;9.754;2024-02-14T03:30:07;4.50;99.90
22966;DHT22;11649;48.090;9.754;2024-02-14T03:32:34;4.50;99.90
22966;DHT22;11649;48.090;9.754;2024-02-14T03:35:01;4.60;99.90
22966;DHT22;11649;48.090;9.754;2024-02-14T03:37:28;4.60;99.90
22966;DHT22;11649;48.090;9.754;2024-02-14T03:39:55;4.60;99.90
22966;DHT22;11649;48.090;9.754;2024-02-14T03:42:22;4.60;99.90
22966;DHT22;11649;48.090;9.754;2024-02-14T03:44:49;4.70;99.90
22966;DHT22;11649;48.090;9.754;2024-02-14T03:47:16;4.70;99.90
22966;DHT22;11649;48.090;9.754;2024-02-14T03:49:42;4.70;99.90
22966;DHT22;11649;48.090;9.754;2024-02-14T03:52:09;4.70;99.90
22966;DHT22;11649;48.090;9.754;2024-02-14T03:54:37;4.70;99.90
22966;DHT22;11649;48.090;9.754;2024-02-14T03:57:04;4.60;99.90
22966;DHT22;11649;48.090;9.754;2024-02-14T03:59:37;4.70;99.90
22966;DHT22;11649;48.090;9.754;2024-02-14T04:02:07;4.70;99.90
22966;DHT22;11649;48.090;9.754;2024-02-14T04:04:37;4.70;99.90
22966;DHT22;11649;48.090;9.754;2024-02-14T04:07:05;4.70;99.90
22966;DHT22;11649;48.090;9.754;2024-02-14T04:09:35;4.70;99.90
22966;DHT22;11649;48.090;9.754;2024-02-14T04:12:02;4.70;99.90
22966;DHT22;11649;48.090;9.754;2024-02-14T04:14:29;4.60;99.90
22966;DHT22;11649;48.090;9.754;2024-02-14T04:16:56;4.60;99.90
22966;DHT22;11649;48.090;9.754;2024-02-14T04:19:29;4.60;99.90
22966;DHT22;11649;48.090;9.754;2024-02-14T04:21:56;4.40;99.90
22966;DHT22;11649;48.090;9.754;2024-02-14T04:24:23;4.40;99.90
22966;DHT22;11649;48.090;9.754;2024-02-14T04:26:50;4.40;99.90
22966;DHT22;11649;48.090;9.754;2024-02-14T04:29:17;4.30;99.90
22966;DHT22;11649;48.090;9.754;2024-02-14T04:31:43;4.40;99.90
22966;DHT22;11649;48.090;9.754;2024-02-14T04:34:10;4.40;99.90
22966;DHT22;11649;48.090;9.754;2024-02-14T04:36:38;4.50;99.90
22966;DHT22;11649;48.090;9.754;2024-02-14T04:39:05;5.50;99.90
22966;DHT22;11649;48.090;9.754;2024-02-14T04:41:32;4.70;99.90
22966;DHT22;11649;48.090;9.754;2024-02-14T04:44:01;4.60;99.90
22966;DHT22;11649;48.090;9.754;2024-02-14T04:46:28;4.60;99.90
22966;DHT22;11649;48.090;9.754;2024-02-14T04:48:56;4.50;99.90
22966;DHT22;11649;48.090;9.754;2024-02-14T04:51:23;4.60;99.90
22966;DHT22;11649;48.090;9.754;2024-02-14T04:53:50;4.60;99.90
22966;DHT22;11649;48.090;9.754;2024-02-14T04:56:17;4.50;99.90
22966;DHT22;11649;48.090;9.754;2024-02-14T04:58:43;4.60;99.90
22966;DHT22;11649;48.090;9.754;2024-02-14T05:01:10;4.60;99.90
22966;DHT22;11649;48.090;9.754;2024-02-14T05:03:37;4.60;99.90
22966;DHT22;11649;48.090;9.754;2024-02-14T05:06:04;4.60;99.90
22966;DHT22;11649;48.090;9.754;2024-02-14T05:08:32;4.70;99.90
22966;DHT22;11649;48.090;9.754;2024-02-14T05:10:59;4.60;99.90
22966;DHT22;11649;48.090;9.754;2024-02-14T05:13:26;4.50;99.90
22966;DHT22;11649;48.090;9.754;2024-02-14T05:15:53;4.40;99.90
22966;DHT22;11649;48.090;9.754;2024-02-14T05:18:20;4.40;99.90
22966;DHT22;11649;48.090;9.754;2024-02-14T05:20:47;4.40;99.90
22966;DHT22;11649;48.090;9.754;2024-02-14T05:23:13;4.50;99.90
22966;DHT22;11649;48.090;9.754;2024-02-14T05:25:40;4.40;99.90
22966;DHT22;11649;48.090;9.754;2024-02-14T05:28:07;4.40;99.90
22966;DHT22;11649;48.090;9.754;2024-02-14T05:30:34;4.30;99.90
22966;DHT22;11649;48.090;9.754;2024-02-14T05:33:28;4.30;99.90
22966;DHT22;11649;48.090;9.754;2024-02-14T05:35:55;4.40;99.90
22966;DHT22;11649;48.090;9.754;2024-02-14T05:38:22;4.50;99.90
22966;DHT22;11649;48.090;9.754;2024-02-14T05:40:49;4.70;99.90
22966;DHT22;11649;48.090;9.754;2024-02-14T05:43:16;4.80;99.90
22966;DHT22;11649;48.090;9.754;2024-02-14T05:45:44;4.70;99.90
22966;DHT22;11649;48.090;9.754;2024-02-14T05:48:11;4.70;99.90
22966;DHT22;11649;48.090;9.754;2024-02-14T05:50:38;4.80;99.90
22966;DHT22;11649;48.090;9.754;2024-02-14T05:53:05;4.90;99.90
22966;DHT22;11649;48.090;9.754;2024-02-14T05:55:32;4.80;99.90
22966;DHT22;11649;48.090;9.754;2024-02-14T05:57:59;4.90;99.90
22966;DHT22;11649;48.090;9.754;2024-02-14T06:00:26;5.00;99.90
22966;DHT22;11649;48.090;9.754;2024-02-14T06:02:55;5.00;99.90
22966;DHT22;11649;48.090;9.754;2024-02-14T06:05:22;5.00;99.90
22966;DHT22;11649;48.090;9.754;2024-02-14T06:07:49;4.90;99.90
22966;DHT22;11649;48.090;9.754;2024-02-14T06:10:17;5.00;99.90
22966;DHT22;11649;48.090;9.754;2024-02-14T06:12:45;5.10;99.90
22966;DHT22;11649;48.090;9.754;2024-02-14T06:15:12;5.10;99.90
22966;DHT22;11649;48.090;9.754;2024-02-14T06:17:39;5.00;99.90
22966;DHT22;11649;48.090;9.754;2024-02-14T06:20:07;5.10;99.90
22966;DHT22;11649;48.090;9.754;2024-02-14T06:22:34;5.00;99.90
22966;DHT22;11649;48.090;9.754;2024-02-14T06:25:13;5.00;99.90
22966;DHT22;11649;48.090;9.754;2024-02-14T06:27:40;5.20;99.90
22966;DHT22;11649;48.090;9.754;2024-02-14T06:30:07;5.30;99.90
22966;DHT22;11649;48.090;9.754;2024-02-14T06:32:35;5.30;99.90
22966;DHT22;11649;48.090;9.754;2024-02-14T06:35:02;5.30;99.90
22966;DHT22;11649;48.090;9.754;2024-02-14T06:37:30;5.30;99.90
22966;DHT22;11649;48.090;9.754;2024-02-14T06:40:11;5.30;99.90
22966;DHT22;11649;48.090;9.754;2024-02-14T06:42:37;5.20;99.90
22966;DHT22;11649;48.090;9.754;2024-02-14T06:45:06;5.30;99.90
22966;DHT22;11649;48.090;9.754;2024-02-14T06:47:33;5.40;99.90
22966;DHT22;11649;48.090;9.754;2024-02-14T06:49:59;5.50;99.90
22966;DHT22;11649;48.090;9.754;2024-02-14T06:52:26;5.40;99.90
22966;DHT22;11649;48.090;9.754;2024-02-14T06:54:53;5.50;99.90
22966;DHT22;11649;48.090;9.754;2024-02-14T06:57:20;5.50;99.90
22966;DHT22;11649;48.090;9.754;2024-02-14T06:59:47;5.50;99.90
22966;DHT22;11649;48.090;9.754;2024-02-14T07:02:13;5.60;99.90
22966;DHT22;11649;48.090;9.754;2024-02-14T07:04:40;5.60;99.90
22966;DHT22;11649;48.090;9.754;2024-02-14T07:07:43;5.50;99.90
22966;DHT22;11649;48.090;9.754;2024-02-14T07:10:10;5.60;99.90
22966;DHT22;11649;48.090;9.754;2024-02-14T07:12:37;5.70;99.90
22966;DHT22;11649;48.090;9.754;2024-02-14T07:15:05;5.80;99.90
22966;DHT22;11649;48.090;9.754;2024-02-14T07:17:32;5.80;99.90
22966;DHT22;11649;48.090;9.754;2024-02-14T07:20:00;5.90;99.90
22966;DHT22;11649;48.090;9.754;2024-02-14T07:22:27;5.90;99.90
22966;DHT22;11649;48.090;9.754;2024-02-14T07:24:54;5.90;99.90
22966;DHT22;11649;48.090;9.754;2024-02-14T07:27:21;5.90;99.90
22966;DHT22;11649;48.090;9.754;2024-02-14T07:29:48;5.90;99.90
22966;DHT22;11649;48.090;9.754;2024-02-14T07:32:15;5.80;99.90
22966;DHT22;11649;48.090;9.754;2024-02-14T07:34:43;5.80;99.90
22966;DHT22;11649;48.090;9.754;2024-02-14T07:37:10;5.90;99.90
22966;DHT22;11649;48.090;9.754;2024-02-14T07:39:37;5.70;99.90
22966;DHT22;11649;48.090;9.754;2024-02-14T07:42:04;5.70;99.90
22966;DHT22;11649;48.090;9.754;2024-02-14T07:44:31;5.80;99.90
22966;DHT22;11649;48.090;9.754;2024-02-14T07:46:58;6.00;99.90
22966;DHT22;11649;48.090;9.754;2024-02-14T07:49:29;6.10;99.90
22966;DHT22;11649;48.090;9.754;2024-02-14T07:52:05;6.10;99.90
22966;DHT22;11649;48.090;9.754;2024-02-14T07:54:32;6.10;99.90
22966;DHT22;11649;48.090;9.754;2024-02-14T07:56:59;6.10;99.90
22966;DHT22;11649;48.090;9.754;2024-02-14T07:59:26;6.20;99.90
22966;DHT22;11649;48.090;9.754;2024-02-14T08:01:57;6.20;99.90
22966;DHT22;11649;48.090;9.754;2024-02-14T08:04:24;6.40;99.90
22966;DHT22;11649;48.090;9.754;2024-02-14T08:06:51;6.30;99.90
22966;DHT22;11649;48.090;9.754;2024-02-14T08:09:17;6.30;99.90
22966;DHT22;11649;48.090;9.754;2024-02-14T08:11:44;6.50;99.90
22966;DHT22;11649;48.090;9.754;2024-02-14T08:14:11;6.50;99.90
22966;DHT22;11649;48.090;9.754;2024-02-14T08:16:39;6.50;99.90
22966;DHT22;11649;48.090;9.754;2024-02-14T08:19:05;6.40;99.90
22966;DHT22;11649;48.090;9.754;2024-02-14T08:21:33;6.70;99.90
22966;DHT22;11649;48.090;9.754;2024-02-14T08:23:59;6.70;99.90
22966;DHT22;11649;48.090;9.754;2024-02-14T08:26:28;6.70;99.90
22966;DHT22;11649;48.090;9.754;2024-02-14T08:28:55;6.80;99.90
22966;DHT22;11649;48.090;9.754;2024-02-14T08:31:22;7.00;99.90
22966;DHT22;11649;48.090;9.754;2024-02-14T08:33:49;7.00;99.90
22966;DHT22;11649;48.090;9.754;2024-02-14T08:36:17;6.70;99.90
22966;DHT22;11649;48.090;9.754;2024-02-14T08:38:46;7.00;99.90
22966;DHT22;11649;48.090;9.754;2024-02-14T08:41:13;7.10;99.90
22966;DHT22;11649;48.090;9.754;2024-02-14T08:43:40;7.30;98.30
22966;DHT22;11649;48.090;9.754;2024-02-14T08:46:12;7.30;97.10
22966;DHT22;11649;48.090;9.754;2024-02-14T08:48:39;7.40;97.50
22966;DHT22;11649;48.090;9.754;2024-02-14T08:51:15;7.20;97.80
22966;DHT22;11649;48.090;9.754;2024-02-14T08:53:43;7.30;96.70
22966;DHT22;11649;48.090;9.754;2024-02-14T08:56:12;7.30;96.70
22966;DHT22;11649;48.090;9.754;2024-02-14T08:58:45;7.30;97.10
22966;DHT22;11649;48.090;9.754;2024-02-14T09:01:13;7.30;97.80
22966;DHT22;11649;48.090;9.754;2024-02-14T09:03:42;7.40;97.80
22966;DHT22;11649;48.090;9.754;2024-02-14T09:06:18;7.50;95.90
22966;DHT22;11649;48.090;9.754;2024-02-14T09:08:45;7.80;94.80
22966;DHT22;11649;48.090;9.754;2024-02-14T09:11:13;8.10;94.00
22966;DHT22;11649;48.090;9.754;2024-02-14T09:13:40;8.40;91.90
22966;DHT22;11649;48.090;9.754;2024-02-14T09:16:10;8.50;91.90
22966;DHT22;11649;48.090;9.754;2024-02-14T09:18:37;8.40;91.30
22966;DHT22;11649;48.090;9.754;2024-02-14T09:21:05;8.20;91.90
22966;DHT22;11649;48.090;9.754;2024-02-14T09:23:33;8.40;91.00
22966;DHT22;11649;48.090;9.754;2024-02-14T09:26:00;8.30;90.70
22966;DHT22;11649;48.090;9.754;2024-02-14T09:28:28;8.40;91.20
22966;DHT22;11649;48.090;9.754;2024-02-14T09:30:55;8.40;91.40
22966;DHT22;11649;48.090;9.754;2024-02-14T09:33:22;8.40;90.50
22966;DHT22;11649;48.090;9.754;2024-02-14T09:35:49;8.30;91.10
22966;DHT22;11649;48.090;9.754;2024-02-14T09:38:18;8.30;91.20
22966;DHT22;11649;48.090;9.754;2024-02-14T09:40:45;8.20;91.70
22966;DHT22;11649;48.090;9.754;2024-02-14T09:43:25;8.30;91.80
22966;DHT22;11649;48.090;9.754;2024-02-14T09:45:55;8.40;91.80
22966;DHT22;11649;48.090;9.754;2024-02-14T09:48:22;8.40;92.30
22966;DHT22;11649;48.090;9.754;2024-02-14T09:50:49;8.30;91.90
22966;DHT22;11649;48.090;9.754;2024-02-14T09:53:17;8.50;92.80
22966;DHT22;11649;48.090;9.754;2024-02-14T09:55:46;8.70;91.60
22966;DHT22;11649;48.090;9.754;2024-02-14T09:58:13;8.90;91.20
22966;DHT22;11649;48.090;9.754;2024-02-14T10:00:40;9.00;90.70
22966;DHT22;11649;48.090;9.754;2024-02-14T10:03:08;9.00;90.40
22966;DHT22;11649;48.090;9.754;2024-02-14T10:05:35;8.90;91.40
22966;DHT22;11649;48.090;9.754;2024-02-14T10:08:03;8.90;92.40
22966;DHT22;11649;48.090;9.754;2024-02-14T10:10:38;9.00;94.70
22966;DHT22;11649;48.090;9.754;2024-02-14T10:13:06;8.60;98.50
22966;DHT22;11649;48.090;9.754;2024-02-14T10:15:33;8.60;97.90
22966;DHT22;11649;48.090;9.754;2024-02-14T10:18:01;8.50;99.90
22966;DHT22;11649;48.090;9.754;2024-02-14T10:20:29;8.50;99.90
22966;DHT22;11649;48.090;9.754;2024-02-14T10:23:01;8.50;99.90
22966;DHT22;11649;48.090;9.754;2024-02-14T10:25:30;8.10;99.90
22966;DHT22;11649;48.090;9.754;2024-02-14T10:28:06;8.10;99.90
22966;DHT22;11649;48.090;9.754;2024-02-14T10:30:37;8.40;99.90
22966;DHT22;11649;48.090;9.754;2024-02-14T10:33:07;8.70;99.90
22966;DHT22;11649;48.090;9.754;2024-02-14T10:35:51;9.00;99.90
22966;DHT22;11649;48.090;9.754;2024-02-14T10:38:19;9.60;99.90
22966;DHT22;11649;48.090;9.754;2024-02-14T10:40:47;9.80;99.00
22966;DHT22;11649;48.090;9.754;2024-02-14T10:43:15;10.10;95.60
22966;DHT22;11649;48.090;9.754;2024-02-14T10:45:42;10.40;93.50
22966;DHT22;11649;48.090;9.754;2024-02-14T10:48:12;10.30;94.30
22966;DHT22;11649;48.090;9.754;2024-02-14T10:50:41;9.70;97.80
22966;DHT22;11649;48.090;9.754;2024-02-14T10:53:13;9.70;97.90
22966;DHT22;11649;48.090;9.754;2024-02-14T10:55:40;9.70;99.90
22966;DHT22;11649;48.090;9.754;2024-02-14T10:58:12;9.90;97.20
22966;DHT22;11649;48.090;9.754;2024-02-14T11:00:41;10.20;93.70
22966;DHT22;11649;48.090;9.754;2024-02-14T11:03:08;10.50;93.60
22966;DHT22;11649;48.090;9.754;2024-02-14T11:05:47;10.80;94.30
22966;DHT22;11649;48.090;9.754;2024-02-14T11:08:15;11.20;88.70
22966;DHT22;11649;48.090;9.754;2024-02-14T11:10:42;10.70;92.80
22966;DHT22;11649;48.090;9.754;2024-02-14T11:13:15;10.60;93.40
22966;DHT22;11649;48.090;9.754;2024-02-14T11:15:45;10.70;92.60
22966;DHT22;11649;48.090;9.754;2024-02-14T11:18:12;10.50;92.20
22966;DHT22;11649;48.090;9.754;2024-02-14T11:20:39;10.70;92.70
22966;DHT22;11649;48.090;9.754;2024-02-14T11:23:07;11.10;91.30
22966;DHT22;11649;48.090;9.754;2024-02-14T11:25:38;11.20;90.60
22966;DHT22;11649;48.090;9.754;2024-02-14T11:28:18;11.40;91.80
22966;DHT22;11649;48.090;9.754;2024-02-14T11:30:46;11.60;86.80
22966;DHT22;11649;48.090;9.754;2024-02-14T11:35:42;12.10;86.60
22966;DHT22;11649;48.090;9.754;2024-02-14T11:38:09;12.20;86.60
22966;DHT22;11649;48.090;9.754;2024-02-14T11:40:43;12.60;86.10
22966;DHT22;11649;48.090;9.754;2024-02-14T11:43:14;12.40;89.00
22966;DHT22;11649;48.090;9.754;2024-02-14T11:45:42;12.60;88.50
22966;DHT22;11649;48.090;9.754;2024-02-14T11:48:10;12.60;85.20
22966;DHT22;11649;48.090;9.754;2024-02-14T11:50:41;12.60;85.30
22966;DHT22;11649;48.090;9.754;2024-02-14T11:53:14;12.60;87.90
22966;DHT22;11649;48.090;9.754;2024-02-14T11:55:43;12.80;88.00
22966;DHT22;11649;48.090;9.754;2024-02-14T11:58:11;12.80;86.80
22966;DHT22;11649;48.090;9.754;2024-02-14T12:00:41;12.70;86.70
22966;DHT22;11649;48.090;9.754;2024-02-14T12:03:24;12.60;89.60
22966;DHT22;11649;48.090;9.754;2024-02-14T12:05:53;12.60;86.50
22966;DHT22;11649;48.090;9.754;2024-02-14T12:08:21;12.50;90.30
22966;DHT22;11649;48.090;9.754;2024-02-14T12:10:48;12.60;88.10
22966;DHT22;11649;48.090;9.754;2024-02-14T12:13:21;12.60;89.30
22966;DHT22;11649;48.090;9.754;2024-02-14T12:15:50;12.60;88.80
22966;DHT22;11649;48.090;9.754;2024-02-14T12:18:20;12.60;89.90
22966;DHT22;11649;48.090;9.754;2024-02-14T12:20:48;12.70;89.50
22966;DHT22;11649;48.090;9.754;2024-02-14T12:23:22;12.70;87.80
22966;DHT22;11649;48.090;9.754;2024-02-14T12:25:53;12.70;88.60
22966;DHT22;11649;48.090;9.754;2024-02-14T12:28:20;12.80;89.50
22966;DHT22;11649;48.090;9.754;2024-02-14T12:30:48;12.80;89.30
22966;DHT22;11649;48.090;9.754;2024-02-14T12:33:17;12.80;90.80
22966;DHT22;11649;48.090;9.754;2024-02-14T12:35:46;13.00;91.80
22966;DHT22;11649;48.090;9.754;2024-02-14T12:38:15;13.20;91.40
22966;DHT22;11649;48.090;9.754;2024-02-14T12:41:04;13.80;86.70
22966;DHT22;11649;48.090;9.754;2024-02-14T12:43:31;13.70;86.00
22966;DHT22;11649;48.090;9.754;2024-02-14T12:45:58;13.90;88.40
22966;DHT22;11649;48.090;9.754;2024-02-14T12:48:25;14.10;86.70
22966;DHT22;11649;48.090;9.754;2024-02-14T12:50:53;14.10;82.60
22966;DHT22;11649;48.090;9.754;2024-02-14T12:53:21;14.40;82.80
22966;DHT22;11649;48.090;9.754;2024-02-14T12:55:48;14.00;81.90
22966;DHT22;11649;48.090;9.754;2024-02-14T12:58:15;13.40;82.20
22966;DHT22;11649;48.090;9.754;2024-02-14T13:00:42;13.80;82.90
22966;DHT22;11649;48.090;9.754;2024-02-14T13:03:11;13.60;84.50
22966;DHT22;11649;48.090;9.754;2024-02-14T13:05:42;13.60;87.90
22966;DHT22;11649;48.090;9.754;2024-02-14T13:08:09;14.10;83.10
22966;DHT22;11649;48.090;9.754;2024-02-14T13:10:39;13.90;84.30
22966;DHT22;11649;48.090;9.754;2024-02-14T13:13:06;14.40;83.30
22966;DHT22;11649;48.090;9.754;2024-02-14T13:15:33;14.80;77.50
22966;DHT22;11649;48.090;9.754;2024-02-14T13:17:59;15.00;76.30
22966;DHT22;11649;48.090;9.754;2024-02-14T13:20:28;15.40;76.10
22966;DHT22;11649;48.090;9.754;2024-02-14T13:22:55;14.80;75.40
22966;DHT22;11649;48.090;9.754;2024-02-14T13:25:22;14.30;78.20
22966;DHT22;11649;48.090;9.754;2024-02-14T13:27:49;14.20;78.40
22966;DHT22;11649;48.090;9.754;2024-02-14T13:30:16;14.10;80.10
22966;DHT22;11649;48.090;9.754;2024-02-14T13:32:45;13.70;83.50
22966;DHT22;11649;48.090;9.754;2024-02-14T13:35:12;13.60;83.20
22966;DHT22;11649;48.090;9.754;2024-02-14T13:37:40;13.70;82.00
22966;DHT22;11649;48.090;9.754;2024-02-14T13:40:07;13.40;85.40
22966;DHT22;11649;48.090;9.754;2024-02-14T13:42:37;13.70;82.50
22966;DHT22;11649;48.090;9.754;2024-02-14T13:45:07;13.90;81.80
22966;DHT22;11649;48.090;9.754;2024-02-14T13:47:38;14.40;82.60
22966;DHT22;11649;48.090;9.754;2024-02-14T13:50:13;14.30;80.90
22966;DHT22;11649;48.090;9.754;2024-02-14T13:52:40;14.20;82.00
22966;DHT22;11649;48.090;9.754;2024-02-14T13:55:07;14.60;80.70
22966;DHT22;11649;48.090;9.754;2024-02-14T13:57:38;14.40;81.70
22966;DHT22;11649;48.090;9.754;2024-02-14T14:00:08;14.50;80.80
22966;DHT22;11649;48.090;9.754;2024-02-14T14:02:38;15.30;78.40
22966;DHT22;11649;48.090;9.754;2024-02-14T14:05:09;15.60;73.60
22966;DHT22;11649;48.090;9.754;2024-02-14T14:07:38;14.80;74.50
22966;DHT22;11649;48.090;9.754;2024-02-14T14:10:23;13.90;83.00
22966;DHT22;11649;48.090;9.754;2024-02-14T14:12:52;13.60;87.40
22966;DHT22;11649;48.090;9.754;2024-02-14T14:15:19;12.90;92.10
22966;DHT22;11649;48.090;9.754;2024-02-14T14:17:46;12.90;91.90
22966;DHT22;11649;48.090;9.754;2024-02-14T14:20:13;12.80;92.80
22966;DHT22;11649;48.090;9.754;2024-02-14T14:22:40;13.20;91.90
22966;DHT22;11649;48.090;9.754;2024-02-14T14:25:07;14.00;90.90
22966;DHT22;11649;48.090;9.754;2024-02-14T14:27:35;14.00;90.10
22966;DHT22;11649;48.090;9.754;2024-02-14T14:30:02;13.90;88.90
22966;DHT22;11649;48.090;9.754;2024-02-14T14:32:29;14.00;88.10
22966;DHT22;11649;48.090;9.754;2024-02-14T14:34:56;14.20;88.80
22966;DHT22;11649;48.090;9.754;2024-02-14T14:37:23;15.50;84.10
22966;DHT22;11649;48.090;9.754;2024-02-14T14:39:50;14.30;84.60
22966;DHT22;11649;48.090;9.754;2024-02-14T14:42:17;14.20;85.30
22966;DHT22;11649;48.090;9.754;2024-02-14T14:44:44;14.50;85.10
22966;DHT22;11649;48.090;9.754;2024-02-14T14:47:11;14.50;85.50
22966;DHT22;11649;48.090;9.754;2024-02-14T14:49:39;14.40;83.60
22966;DHT22;11649;48.090;9.754;2024-02-14T14:52:06;14.30;86.40
22966;DHT22;11649;48.090;9.754;2024-02-14T14:54:43;14.40;85.70
22966;DHT22;11649;48.090;9.754;2024-02-14T14:57:10;14.00;88.10
22966;DHT22;11649;48.090;9.754;2024-02-14T14:59:41;14.00;88.00
22966;DHT22;11649;48.090;9.754;2024-02-14T15:02:08;13.60;91.40
22966;DHT22;11649;48.090;9.754;2024-02-14T15:04:34;13.30;90.50
22966;DHT22;11649;48.090;9.754;2024-02-14T15:07:03;14.20;91.60
22966;DHT22;11649;48.090;9.754;2024-02-14T15:09:30;13.50;92.00
22966;DHT22;11649;48.090;9.754;2024-02-14T15:12:01;12.40;92.20
22966;DHT22;11649;48.090;9.754;2024-02-14T15:14:28;13.20;93.30
22966;DHT22;11649;48.090;9.754;2024-02-14T15:16:55;13.30;93.20
22966;DHT22;11649;48.090;9.754;2024-02-14T15:19:21;13.40;93.00
22966;DHT22;11649;48.090;9.754;2024-02-14T15:21:50;13.40;92.80
22966;DHT22;11649;48.090;9.754;2024-02-14T15:24:18;13.30;93.50
22966;DHT22;11649;48.090;9.754;2024-02-14T15:26:45;13.10;93.40
22966;DHT22;11649;48.090;9.754;2024-02-14T15:29:20;13.10;93.30
22966;DHT22;11649;48.090;9.754;2024-02-14T15:32:06;13.10;92.70
22966;DHT22;11649;48.090;9.754;2024-02-14T15:34:51;12.70;94.70
22966;DHT22;11649;48.090;9.754;2024-02-14T15:37:18;12.60;94.80
22966;DHT22;11649;48.090;9.754;2024-02-14T15:39:45;13.00;96.70
22966;DHT22;11649;48.090;9.754;2024-02-14T15:42:12;12.80;95.90
22966;DHT22;11649;48.090;9.754;2024-02-14T15:44:39;12.30;96.50
22966;DHT22;11649;48.090;9.754;2024-02-14T15:47:06;12.10;96.30
22966;DHT22;11649;48.090;9.754;2024-02-14T15:49:34;12.40;96.50
22966;DHT22;11649;48.090;9.754;2024-02-14T15:52:02;12.40;97.10